createdAt,value
2022-09-12T00:01:27.559Z,72.26
2022-09-12T00:03:58.782Z,72.23
2022-09-12T00:06:30.583Z,72.38
2022-09-12T00:09:01.753Z,72.23
2022-09-12T00:11:30.610Z,71.85
2022-09-12T00:14:01.306Z,71.73
2022-09-12T00:16:33.586Z,71.58
2022-09-12T00:19:02.334Z,71.87
2022-09-12T00:21:31.025Z,72.06
2022-09-12T00:23:59.445Z,72.58
2022-09-12T00:26:27.864Z,72.95
2022-09-12T00:28:56.142Z,73.61
2022-09-12T00:31:27.039Z,74.28
2022-09-12T00:34:00.551Z,74.75
2022-09-12T00:36:31.426Z,75.34
2022-09-12T00:38:59.998Z,75.63
2022-09-12T00:41:31.115Z,75.93
2022-09-12T00:44:01.559Z,76.00
2022-09-12T00:46:36.477Z,76.03
2022-09-12T00:49:13.360Z,76.77
2022-09-12T00:51:47.819Z,77.25
2022-09-12T00:54:21.734Z,77.61
2022-09-12T00:56:54.289Z,78.05
2022-09-12T00:59:30.389Z,78.21
2022-09-12T01:01:59.009Z,78.42
2022-09-12T01:04:30.098Z,78.54
2022-09-12T01:06:59.936Z,78.67
2022-09-12T01:09:28.322Z,79.17
2022-09-12T01:11:57.113Z,79.52
2022-09-12T01:14:25.978Z,79.92
2022-09-12T01:16:54.472Z,80.41
2022-09-12T01:20:05.389Z,80.96
2022-09-12T01:23:07.551Z,81.23
2022-09-12T01:25:52.635Z,81.06
2022-09-12T01:28:39.520Z,81.38
2022-09-12T01:31:15.654Z,80.64
2022-09-12T01:34:10.703Z,80.73
2022-09-12T01:36:52.918Z,80.30
2022-09-12T01:39:31.484Z,80.27
2022-09-12T01:42:11.114Z,79.89
2022-09-12T01:44:48.067Z,79.88
2022-09-12T01:47:24.049Z,79.90
2022-09-12T01:50:01.902Z,80.11
2022-09-12T01:52:38.375Z,80.14
2022-09-12T01:55:12.875Z,79.97
2022-09-12T01:57:50.775Z,79.92
2022-09-12T02:00:19.448Z,79.99
2022-09-12T02:02:54.891Z,79.71
2022-09-12T02:05:29.365Z,79.53
2022-09-12T02:08:05.098Z,79.57
2022-09-12T02:10:38.113Z,79.79
2022-09-12T02:13:12.649Z,79.80
2022-09-12T02:15:47.095Z,79.98
2022-09-12T02:18:20.726Z,80.09
2022-09-12T02:20:50.525Z,79.97
2022-09-12T02:23:23.395Z,80.09
2022-09-12T02:25:56.119Z,80.20
2022-09-12T02:28:29.266Z,80.13
2022-09-12T02:31:10.693Z,79.92
2022-09-12T02:33:50.448Z,79.77
2022-09-12T02:36:32.885Z,79.58
2022-09-12T02:39:01.585Z,79.58
2022-09-12T02:41:30.152Z,79.01
2022-09-12T02:43:58.848Z,79.01
2022-09-12T02:46:34.764Z,78.74
2022-09-12T02:49:04.618Z,78.87
2022-09-12T02:51:33.044Z,79.00
2022-09-12T02:54:02.163Z,78.97
2022-09-12T02:56:32.261Z,78.91
2022-09-12T02:59:04.303Z,79.02
2022-09-12T03:02:01.364Z,79.38
2022-09-12T03:05:07.436Z,80.13
2022-09-12T03:07:47.932Z,81.00
2022-09-12T03:10:25.856Z,81.11
2022-09-12T03:13:04.870Z,81.12
2022-09-12T03:15:46.788Z,81.49
2022-09-12T03:18:37.526Z,81.75
2022-09-12T03:21:14.427Z,81.89
2022-09-12T03:23:52.005Z,82.04
2022-09-12T03:26:28.847Z,82.12
2022-09-12T03:28:59.180Z,82.39
2022-09-12T03:31:27.640Z,83.14
2022-09-12T03:33:55.853Z,83.67
2022-09-12T03:36:28.557Z,84.18
2022-09-12T03:38:57.212Z,84.63
2022-09-12T03:41:25.567Z,84.89
2022-09-12T03:43:53.782Z,85.31
2022-09-12T03:46:21.990Z,85.72
2022-09-12T03:48:50.752Z,85.91
2022-09-12T03:51:19.068Z,85.98
2022-09-12T03:53:48.651Z,86.12
2022-09-12T03:56:17.916Z,85.96
2022-09-12T03:58:46.747Z,86.05
2022-09-12T04:01:21.814Z,85.92
2022-09-12T04:03:52.650Z,86.03
2022-09-12T04:06:23.237Z,85.81
2022-09-12T04:08:58.629Z,85.57
2022-09-12T04:11:26.989Z,85.38
2022-09-12T04:13:55.812Z,85.33
2022-09-12T04:16:24.161Z,85.21
2022-09-12T04:19:29.842Z,84.91
2022-09-12T04:21:58.170Z,84.81
2022-09-12T04:24:30.720Z,84.79
2022-09-12T04:26:59.230Z,84.74
2022-09-12T04:29:27.745Z,84.19
2022-09-12T04:31:56.005Z,84.05
2022-09-12T04:34:24.408Z,84.17
2022-09-12T04:36:52.809Z,84.17
2022-09-12T04:39:21.014Z,84.09
2022-09-12T04:41:50.713Z,84.07
2022-09-12T04:44:19.056Z,84.39
2022-09-12T04:46:48.584Z,84.32
2022-09-12T04:49:19.340Z,84.01
2022-09-12T04:51:48.064Z,83.72
2022-09-12T04:54:19.232Z,83.17
2022-09-12T04:56:51.282Z,83.47
2022-09-12T04:59:22.513Z,83.94
2022-09-12T05:01:51.263Z,84.25
2022-09-12T05:04:20.074Z,84.25
2022-09-12T05:06:48.387Z,84.44
2022-09-12T05:09:16.874Z,84.42
2022-09-12T05:12:03.909Z,83.98
2022-09-12T05:14:35.192Z,83.83
2022-09-12T05:17:05.940Z,84.24
2022-09-12T05:19:34.722Z,84.59
2022-09-12T05:22:02.976Z,84.52
2022-09-12T05:24:31.207Z,84.87
2022-09-12T05:26:59.822Z,84.90
2022-09-12T05:29:28.085Z,84.90
2022-09-12T05:31:57.771Z,84.73
2022-09-12T05:34:27.799Z,84.50
2022-09-12T05:36:56.103Z,84.35
2022-09-12T05:39:24.662Z,84.56
2022-09-12T05:41:52.881Z,84.56
2022-09-12T05:44:21.382Z,84.85
2022-09-12T05:46:51.359Z,84.39
2022-09-12T05:49:21.425Z,84.17
2022-09-12T05:51:50.777Z,84.10
2022-09-12T05:54:21.240Z,83.80
2022-09-12T05:56:49.940Z,83.89
2022-09-12T05:59:21.310Z,83.99
2022-09-12T06:01:49.892Z,83.99
2022-09-12T06:04:20.038Z,84.17
2022-09-12T06:06:48.770Z,84.48
2022-09-12T06:09:18.559Z,84.93
2022-09-12T06:11:48.059Z,85.58
2022-09-12T06:14:19.550Z,86.01
2022-09-12T06:16:48.569Z,86.24
2022-09-12T06:19:21.624Z,86.07
2022-09-12T06:21:51.516Z,86.39
2022-09-12T06:24:22.632Z,86.49
2022-09-12T06:26:52.608Z,86.54
2022-09-12T06:29:21.158Z,86.93
2022-09-12T06:31:49.406Z,87.41
2022-09-12T06:34:18.058Z,87.28
2022-09-12T06:36:49.614Z,87.81
2022-09-12T06:39:19.958Z,88.33
2022-09-12T06:41:49.384Z,88.83
2022-09-12T06:44:20.848Z,89.36
2022-09-12T06:46:49.764Z,89.19
2022-09-12T06:49:18.558Z,88.31
2022-09-12T06:51:49.173Z,88.50
2022-09-12T06:54:17.869Z,89.30
2022-09-12T06:56:46.380Z,89.23
2022-09-12T06:59:14.814Z,88.71
2022-09-12T07:01:43.310Z,88.41
2022-09-12T07:04:12.540Z,88.35
2022-09-12T07:06:44.494Z,88.22
2022-09-12T07:09:17.209Z,87.52
2022-09-12T07:11:46.359Z,87.59
2022-09-12T07:14:16.159Z,87.40
2022-09-12T07:16:44.985Z,87.82
2022-09-12T07:19:13.505Z,87.26
2022-09-12T07:21:42.185Z,87.02
2022-09-12T07:24:11.548Z,87.32
2022-09-12T07:26:42.576Z,87.40
2022-09-12T07:32:06.595Z,87.33
2022-09-12T07:34:35.755Z,85.97
2022-09-12T07:37:04.564Z,85.09
2022-09-12T07:39:33.357Z,84.64
2022-09-12T07:42:03.207Z,84.58
2022-09-12T07:44:31.478Z,85.39
2022-09-12T07:46:59.861Z,84.25
2022-09-12T07:49:28.270Z,84.74
2022-09-12T07:51:56.555Z,85.17
2022-09-12T07:54:25.157Z,85.82
2022-09-12T07:56:53.380Z,86.15
2022-09-12T07:59:48.476Z,85.44
2022-09-12T08:02:17.408Z,85.31
2022-09-12T08:04:48.449Z,85.45
2022-09-12T08:07:18.296Z,85.41
2022-09-12T08:09:47.255Z,84.34
2022-09-12T08:12:16.513Z,84.61
2022-09-12T08:14:46.227Z,85.02
2022-09-12T08:17:14.526Z,83.06
2022-09-12T08:19:43.687Z,82.74
2022-09-12T08:22:12.236Z,83.50
2022-09-12T08:24:40.952Z,83.81
2022-09-12T08:27:09.405Z,83.82
2022-09-12T08:29:37.764Z,84.46
2022-09-12T08:32:07.688Z,84.82
2022-09-12T08:34:36.055Z,84.96
2022-09-12T08:37:04.387Z,84.35
2022-09-12T08:39:33.670Z,84.35
2022-09-12T08:42:04.828Z,84.49
2022-09-12T08:44:48.047Z,81.43
2022-09-12T08:47:23.763Z,80.38
2022-09-12T08:50:00.545Z,80.13
2022-09-12T08:52:36.455Z,81.73
2022-09-12T08:55:24.843Z,81.99
2022-09-12T08:57:53.805Z,81.74
2022-09-12T09:00:22.682Z,82.10
2022-09-12T09:03:53.612Z,81.72
2022-09-12T09:06:39.947Z,81.91
2022-09-12T09:09:20.024Z,80.69
2022-09-12T09:12:04.606Z,79.94
2022-09-12T09:14:51.980Z,79.82
2022-09-12T09:17:26.337Z,78.90
2022-09-12T09:20:05.373Z,78.61
2022-09-12T09:22:44.418Z,76.28
2022-09-12T09:25:22.845Z,75.92
2022-09-12T09:27:59.387Z,76.70
2022-09-12T09:30:28.676Z,77.00
2022-09-12T09:33:01.842Z,75.00
2022-09-12T09:35:44.758Z,76.27
2022-09-12T09:38:30.876Z,75.97
2022-09-12T09:41:27.959Z,75.67
2022-09-12T09:43:58.198Z,75.29
2022-09-12T09:46:27.840Z,74.59
2022-09-12T09:48:59.610Z,74.52
2022-09-12T09:51:36.114Z,74.25
2022-09-12T09:54:14.782Z,74.70
2022-09-12T09:56:44.250Z,75.35
2022-09-12T09:59:14.101Z,75.52
2022-09-12T10:01:48.238Z,72.99
2022-09-12T10:04:22.454Z,72.86
2022-09-12T10:06:55.304Z,72.73
2022-09-12T10:09:27.187Z,71.63
2022-09-12T10:11:57.635Z,70.49
2022-09-12T10:14:38.644Z,70.51
2022-09-12T10:17:34.305Z,69.95
2022-09-12T10:20:20.953Z,69.46
2022-09-12T10:22:51.483Z,67.92
2022-09-12T10:25:21.317Z,68.07
2022-09-12T10:27:56.248Z,68.22
2022-09-12T10:30:28.301Z,66.65
2022-09-12T10:33:07.423Z,68.01
2022-09-12T10:35:47.043Z,66.77
2022-09-12T10:38:23.644Z,65.79
2022-09-12T10:41:00.128Z,66.96
2022-09-12T10:43:33.042Z,64.95
2022-09-12T10:46:25.267Z,63.28
2022-09-12T10:49:15.819Z,62.98
2022-09-12T10:51:44.262Z,63.38
2022-09-12T10:54:17.937Z,63.19
2022-09-12T10:57:02.996Z,63.82
2022-09-12T10:59:35.030Z,60.55
2022-09-12T11:02:16.195Z,60.33
2022-09-12T11:05:00.718Z,60.39
2022-09-12T11:07:43.792Z,60.15
2022-09-12T11:10:36.143Z,59.47
2022-09-12T11:13:25.067Z,60.26
2022-09-12T11:16:19.949Z,59.04
2022-09-12T11:19:23.453Z,60.13
2022-09-12T11:22:10.562Z,56.38
2022-09-12T11:25:13.079Z,57.22
2022-09-12T11:28:18.334Z,56.83
2022-09-12T11:31:05.214Z,57.87
2022-09-12T11:33:44.357Z,59.33
2022-09-12T11:36:28.539Z,57.15
2022-09-12T11:39:07.693Z,57.29
2022-09-12T11:41:39.709Z,58.47
2022-09-12T11:44:18.556Z,57.47
2022-09-12T11:46:51.689Z,58.16
2022-09-12T11:49:35.558Z,56.05
2022-09-12T11:52:12.776Z,55.07
2022-09-12T11:54:49.014Z,54.28
2022-09-12T11:57:29.147Z,54.09
2022-09-12T12:00:05.364Z,53.17
2022-09-12T12:02:41.353Z,52.28
2022-09-12T12:05:21.978Z,50.74
2022-09-12T12:07:56.224Z,51.64
2022-09-12T12:10:36.101Z,45.22
2022-09-12T12:13:13.896Z,43.70
2022-09-12T12:15:50.585Z,42.56
2022-09-12T12:18:25.378Z,41.37
2022-09-12T12:20:57.721Z,39.91
2022-09-12T12:23:35.109Z,40.66
2022-09-12T12:26:07.430Z,39.05
2022-09-12T12:29:04.483Z,39.88
2022-09-12T12:32:23.966Z,39.04
2022-09-12T12:35:02.882Z,39.59
2022-09-12T12:37:54.443Z,39.03
2022-09-12T12:40:29.744Z,38.46
2022-09-12T12:43:15.884Z,38.26
2022-09-12T12:46:13.410Z,36.82
2022-09-12T12:49:12.865Z,37.35
2022-09-12T12:51:58.028Z,38.18
2022-09-12T12:54:34.778Z,34.90
2022-09-12T12:57:17.518Z,35.70
2022-09-12T12:59:55.304Z,36.81
2022-09-12T13:02:31.195Z,34.81
2022-09-12T13:05:06.313Z,33.44
2022-09-12T13:07:40.186Z,33.77
2022-09-12T13:10:12.101Z,34.58
2022-09-12T13:12:49.241Z,34.28
2022-09-12T13:15:50.547Z,32.63
2022-09-12T13:18:31.840Z,32.37
2022-09-12T13:21:11.321Z,31.86
2022-09-12T13:23:42.207Z,31.35
2022-09-12T13:26:14.945Z,30.24
2022-09-12T13:28:44.299Z,30.51
2022-09-12T13:31:22.102Z,30.16
2022-09-12T13:33:54.737Z,30.43
2022-09-12T13:37:12.741Z,30.79
2022-09-12T13:39:49.733Z,30.02
2022-09-12T13:42:42.047Z,30.35
2022-09-12T13:45:17.258Z,29.27
2022-09-12T13:47:47.909Z,28.81
2022-09-12T13:50:20.191Z,28.91
2022-09-12T13:52:53.720Z,28.24
2022-09-12T13:55:34.255Z,26.57
2022-09-12T13:58:05.198Z,26.88
2022-09-12T14:00:35.971Z,26.38
2022-09-12T14:03:45.342Z,26.17
2022-09-12T14:06:14.636Z,26.77
2022-09-12T14:08:45.009Z,25.60
2022-09-12T14:11:22.027Z,25.76
2022-09-12T14:13:51.141Z,25.83
2022-09-12T14:16:21.127Z,26.13
2022-09-12T14:18:51.674Z,26.80
2022-09-12T14:21:36.196Z,26.16
2022-09-12T14:24:08.448Z,25.67
2022-09-12T14:26:40.514Z,25.47
2022-09-12T14:29:10.163Z,24.97
2022-09-12T14:31:41.211Z,25.86
2022-09-12T14:34:13.204Z,26.34
2022-09-12T14:36:47.548Z,24.24
2022-09-12T14:39:30.395Z,24.69
2022-09-12T14:42:06.176Z,23.60
2022-09-12T14:44:36.210Z,23.42
2022-09-12T14:47:16.045Z,23.20
2022-09-12T14:49:44.636Z,23.93
2022-09-12T14:52:27.673Z,23.35
2022-09-12T14:55:03.532Z,23.39
2022-09-12T14:57:38.843Z,23.40
2022-09-12T15:00:21.427Z,23.38
2022-09-12T15:02:50.945Z,23.26
2022-09-12T15:05:23.654Z,23.89
2022-09-12T15:07:58.924Z,23.37
2022-09-12T15:10:32.310Z,23.17
2022-09-12T15:13:20.621Z,22.48
2022-09-12T15:15:52.232Z,22.71
2022-09-12T15:18:23.349Z,22.99
2022-09-12T15:21:02.055Z,22.20
2022-09-12T15:23:40.364Z,22.47
2022-09-12T15:26:15.980Z,23.37
2022-09-12T15:28:46.075Z,22.58
2022-09-12T15:31:23.687Z,21.91
2022-09-12T15:33:53.449Z,21.92
2022-09-12T15:36:25.965Z,21.99
2022-09-12T15:38:54.739Z,21.86
2022-09-12T15:41:32.986Z,21.81
2022-09-12T15:44:01.458Z,22.27
2022-09-12T15:46:29.838Z,22.05
2022-09-12T15:48:58.108Z,22.23
2022-09-12T15:51:26.533Z,22.12
2022-09-12T15:53:54.843Z,21.49
2022-09-12T15:56:27.900Z,21.52
2022-09-12T15:58:59.543Z,21.40
2022-09-12T16:01:35.833Z,21.65
2022-09-12T16:04:23.485Z,21.85
2022-09-12T16:06:52.590Z,21.52
2022-09-12T16:09:22.649Z,22.36
2022-09-12T16:11:54.722Z,22.58
2022-09-12T16:14:23.166Z,22.45
2022-09-12T16:16:57.636Z,22.09
2022-09-12T16:19:26.058Z,22.56
2022-09-12T16:21:54.440Z,22.24
2022-09-12T16:24:23.109Z,22.31
2022-09-12T16:26:59.177Z,22.74
2022-09-12T16:29:29.378Z,22.71
2022-09-12T16:31:58.192Z,23.37
2022-09-12T16:34:26.844Z,23.00
2022-09-12T16:36:55.727Z,22.75
2022-09-12T16:39:24.113Z,23.29
2022-09-12T16:41:52.378Z,23.54
2022-09-12T16:44:23.756Z,23.07
2022-09-12T16:46:54.333Z,23.69
2022-09-12T16:49:22.803Z,24.13
2022-09-12T16:51:51.236Z,23.85
2022-09-12T16:54:19.729Z,24.75
2022-09-12T16:56:49.492Z,24.37
2022-09-12T16:59:17.857Z,24.82
2022-09-12T17:01:47.649Z,24.65
2022-09-12T17:04:15.962Z,24.70
2022-09-12T17:06:45.076Z,24.92
2022-09-12T17:09:18.354Z,25.31
2022-09-12T17:11:49.561Z,26.02
2022-09-12T17:14:17.901Z,26.19
2022-09-12T17:16:51.876Z,26.16
2022-09-12T17:19:24.364Z,26.47
2022-09-12T17:21:52.791Z,26.61
2022-09-12T17:24:28.680Z,26.81
2022-09-12T17:26:59.262Z,26.98
2022-09-12T17:29:28.773Z,27.56
2022-09-12T17:32:01.204Z,27.48
2022-09-12T17:34:31.337Z,27.56
2022-09-12T17:37:00.578Z,28.06
2022-09-12T17:39:29.047Z,28.09
2022-09-12T17:41:58.889Z,28.30
2022-09-12T17:44:29.772Z,28.65
2022-09-12T17:46:58.092Z,28.67
2022-09-12T17:49:28.311Z,29.10
2022-09-12T17:51:57.869Z,29.53
2022-09-12T17:54:27.602Z,29.89
2022-09-12T17:56:56.414Z,29.99
2022-09-12T17:59:24.940Z,30.58
2022-09-12T18:02:11.059Z,30.88
2022-09-12T18:04:41.160Z,30.72
2022-09-12T18:07:09.540Z,31.00
2022-09-12T18:09:37.867Z,31.56
2022-09-12T18:12:07.236Z,31.51
2022-09-12T18:14:36.043Z,31.99
2022-09-12T18:17:04.631Z,32.22
2022-09-12T18:19:33.106Z,32.48
2022-09-12T18:22:03.383Z,32.15
2022-09-12T18:24:31.582Z,32.70
2022-09-12T18:27:01.808Z,32.80
2022-09-12T18:29:30.010Z,33.21
2022-09-12T18:31:58.509Z,33.63
2022-09-12T18:34:27.336Z,33.79
2022-09-12T18:36:55.991Z,34.01
2022-09-12T18:39:27.829Z,34.15
2022-09-12T18:41:57.034Z,33.94
2022-09-12T18:44:25.677Z,34.10
2022-09-12T18:46:54.046Z,34.64
2022-09-12T18:49:24.223Z,35.34
2022-09-12T18:51:52.891Z,35.84
2022-09-12T18:54:21.459Z,36.07
2022-09-12T18:56:51.141Z,36.35
2022-09-12T18:59:19.431Z,36.40
2022-09-12T19:01:48.110Z,36.68
2022-09-12T19:04:16.589Z,35.86
2022-09-12T19:06:48.883Z,35.74
2022-09-12T19:09:20.551Z,35.86
2022-09-12T19:11:50.523Z,35.77
2022-09-12T19:14:22.616Z,36.18
2022-09-12T19:16:52.041Z,36.06
2022-09-12T19:19:20.896Z,35.89
2022-09-12T19:21:49.357Z,35.92
2022-09-12T19:24:17.894Z,36.31
2022-09-12T19:26:46.683Z,36.55
2022-09-12T19:29:17.385Z,36.90
2022-09-12T19:31:46.671Z,37.22
2022-09-12T19:34:15.767Z,37.70
2022-09-12T19:36:45.727Z,37.72
2022-09-12T19:39:16.093Z,38.33
2022-09-12T19:41:45.172Z,38.30
2022-09-12T19:44:13.615Z,38.88
2022-09-12T19:46:43.437Z,39.04
2022-09-12T19:49:13.213Z,39.01
2022-09-12T19:51:42.011Z,39.39
2022-09-12T19:54:10.582Z,39.42
2022-09-12T19:56:38.901Z,39.59
2022-09-12T19:59:07.263Z,39.56
2022-09-12T20:01:37.048Z,39.84
2022-09-12T20:04:08.145Z,39.67
2022-09-12T20:06:37.153Z,40.14
2022-09-12T20:09:05.907Z,40.03
2022-09-12T20:11:34.174Z,40.24
2022-09-12T20:14:02.783Z,40.43
2022-09-12T20:16:33.125Z,40.90
2022-09-12T20:19:06.008Z,41.16
2022-09-12T20:21:37.181Z,41.45
2022-09-12T20:24:08.409Z,41.69
2022-09-12T20:26:37.468Z,42.13
2022-09-12T20:29:07.069Z,42.35
2022-09-12T20:31:37.305Z,42.57
2022-09-12T20:34:06.724Z,42.48
2022-09-12T20:36:36.735Z,42.53
2022-09-12T20:39:05.621Z,42.48
2022-09-12T20:41:36.308Z,42.70
2022-09-12T20:44:04.873Z,43.04
2022-09-12T20:46:33.416Z,43.63
2022-09-12T20:49:01.926Z,43.82
2022-09-12T20:51:30.471Z,43.77
2022-09-12T20:54:03.522Z,43.83
2022-09-12T20:56:34.059Z,44.44
2022-09-12T20:59:02.728Z,44.59
2022-09-12T21:01:32.305Z,44.41
2022-09-12T21:04:01.722Z,44.54
2022-09-12T21:06:30.301Z,44.81
2022-09-12T21:09:00.366Z,44.87
2022-09-12T21:11:29.387Z,45.22
2022-09-12T21:13:58.307Z,45.19
2022-09-12T21:16:26.601Z,45.46
2022-09-12T21:18:57.297Z,46.23
2022-09-12T21:21:26.806Z,46.44
2022-09-12T21:24:02.275Z,46.59
2022-09-12T21:26:30.865Z,46.91
2022-09-12T21:28:59.845Z,47.41
2022-09-12T21:31:28.141Z,47.98
2022-09-12T21:33:56.485Z,47.78
2022-09-12T21:36:26.080Z,48.53
2022-09-12T21:38:54.354Z,48.86
2022-09-12T21:41:24.025Z,48.45
2022-09-12T21:43:52.262Z,48.87
2022-09-12T21:46:20.632Z,48.87
2022-09-12T21:48:49.017Z,49.44
2022-09-12T21:51:17.424Z,49.65
2022-09-12T21:53:46.302Z,49.75
2022-09-12T21:56:14.739Z,49.78
2022-09-12T21:58:44.549Z,49.63
2022-09-12T22:01:13.404Z,49.68
2022-09-12T22:03:44.764Z,49.94
2022-09-12T22:06:14.634Z,50.15
2022-09-12T22:08:43.172Z,50.25
2022-09-12T22:11:11.757Z,50.59
2022-09-12T22:13:42.699Z,50.77
2022-09-12T22:16:13.146Z,50.80
2022-09-12T22:18:41.488Z,51.15
2022-09-12T22:21:13.369Z,51.47
2022-09-12T22:23:59.374Z,51.07
2022-09-12T22:26:28.257Z,51.28
2022-09-12T22:28:57.197Z,51.13
2022-09-12T22:31:28.192Z,51.20
2022-09-12T22:33:57.293Z,51.47
2022-09-12T22:36:30.510Z,51.41
2022-09-12T22:38:59.776Z,51.57
2022-09-12T22:41:28.386Z,51.55
2022-09-12T22:43:57.649Z,51.30
2022-09-12T22:46:30.443Z,51.38
2022-09-12T22:48:59.180Z,51.58
2022-09-12T22:51:28.702Z,51.56
2022-09-12T22:53:57.116Z,51.49
2022-09-12T22:56:26.247Z,51.70
2022-09-12T22:58:55.055Z,52.06
2022-09-12T23:01:23.920Z,52.36
2022-09-12T23:03:53.873Z,53.31
2022-09-12T23:06:22.219Z,54.06
2022-09-12T23:08:50.644Z,54.70
2022-09-12T23:11:21.421Z,55.01
2022-09-12T23:13:51.653Z,55.29
2022-09-12T23:16:23.194Z,55.63
2022-09-12T23:18:53.391Z,55.78
2022-09-12T23:21:22.682Z,55.93
2022-09-12T23:23:51.602Z,56.45
2022-09-12T23:26:22.360Z,56.45
2022-09-12T23:28:53.699Z,56.76
2022-09-12T23:31:24.314Z,57.09
2022-09-12T23:33:55.931Z,57.00
2022-09-12T23:36:25.176Z,57.30
2022-09-12T23:38:56.012Z,57.33
2022-09-12T23:41:25.252Z,57.38
2022-09-12T23:43:53.671Z,57.17
2022-09-12T23:46:22.509Z,57.31
2022-09-12T23:48:53.144Z,57.46
2022-09-12T23:51:23.024Z,57.63
2022-09-12T23:53:51.661Z,57.33
2022-09-12T23:56:20.050Z,57.54
2022-09-12T23:58:48.508Z,57.64
